Angler Guide Weather for Collingwood -
Collingwood, Ontario Current Weather Conditions
Enter your "Place, State", US Zip Code or ICAO:  
Forecast Information Radar Information
Collingwood, Ontario, Canada  Lat: 44.50N, Lon: 80.22W
ICAO Used: CYVV
Current Conditions
Updated:
Sun & Moon Information:
Temp: N/A
Humidity: N/A
Wind Speed: N/A
Barometer: N/A
Dewpoint: N/A
Heat Index: N/A
Wind Chill: N/A
Civil Twilight: 7:11 AM EDT
Moonrise: 8:19 AM EDT Moon Phase:
Waxing Crescent Moon
Waxing Crescent Moon
Moonset: 7:22 PM EDT
Sunrise: 7:40 AM EDT
Sunset: 6:28 PM EDT
Civil Twilight: 6:58 PM EDT
Forecast for Collingwood, ON:
(Forecast based on TAF for )
0405 PM EDT MON NOV 06 2006
  
AFTERNOONEVENING
PARTLY CLOUDYPARTLY CLOUDY
Partly
Cloudy
Partly
Cloudy
TAF based forecast:
Dated: 0405 PM EDT MON NOV 06 2006
Afternoon...Partly cloudy with winds from the south south east at 12 mph. Possible periods of mostly cloudy.
Evening...Partly cloudy with winds from the south south east at 12 mph. Possible periods of mostly cloudy.
Original Encoded TAF:
Dated: 0405 PM EDT MON NOV 06 2006
2006/11/06 20:05
CYVV 062005Z 062024 20010KT P6SM SCT025 TEMPO 2022 BKN025=




Powered by Angler Guide.com
Copyright 2007, all rights reserved.